Time;durP1;ratioP1;P1;durP2;ratioP2;P2;SDS_P1;SDS_P2;PMS_P1;PMS_P2;Temp;Humidity;BMP_temperature;BMP_pressure;BME280_temperature;BME280_humidity;BME280_pressure;Samples;Min_cycle;Max_cycle;Signal;HPM_P1;HPM_P2
2023/07/01 00:00:07;;;;;;;;;;;18.00;99.90;;;;;;5075434;28;20023;-67
2023/07/01 00:02:33;;;;;;;;;;;17.90;99.90;;;;;;5075133;28;20287;-69
2023/07/01 00:04:59;;;;;;;;;;;17.90;99.90;;;;;;5074898;28;19992;-67
2023/07/01 00:07:24;;;;;;;;;;;18.00;99.90;;;;;;5083333;28;19991;-68
2023/07/01 00:09:50;;;;;;;;;;;17.90;99.90;;;;;;5075288;28;19919;-66
2023/07/01 00:12:16;;;;;;;;;;;17.90;99.90;;;;;;5075476;28;20269;-69
2023/07/01 00:14:41;;;;;;;;;;;17.80;99.90;;;;;;5074960;28;20272;-67
2023/07/01 00:17:09;;;;;;;;;;;17.70;99.90;;;;;;5074513;28;19908;-66
2023/07/01 00:19:35;;;;;;;;;;;17.70;99.90;;;;;;5075238;28;19967;-69
2023/07/01 00:22:02;;;;;;;;;;;17.70;99.90;;;;;;5074333;28;19967;-67
2023/07/01 00:24:28;;;;;;;;;;;17.60;99.90;;;;;;5085201;28;20330;-70
2023/07/01 00:26:53;;;;;;;;;;;17.60;99.90;;;;;;5078588;28;19957;-67
2023/07/01 00:29:19;;;;;;;;;;;17.50;99.90;;;;;;5075378;28;19912;-78
2023/07/01 00:31:46;;;;;;;;;;;17.40;99.90;;;;;;5074155;28;20302;-68
2023/07/01 00:34:12;;;;;;;;;;;17.40;99.90;;;;;;5072244;28;19923;-73
2023/07/01 00:36:37;;;;;;;;;;;17.30;99.90;;;;;;5073946;28;19912;-66
2023/07/01 00:39:03;;;;;;;;;;;17.30;99.90;;;;;;5074434;28;19916;-70
2023/07/01 00:41:29;;;;;;;;;;;17.20;99.90;;;;;;5073256;28;19913;-69
2023/07/01 00:43:54;;;;;;;;;;;17.20;99.90;;;;;;5073786;28;19995;-66
2023/07/01 00:46:21;;;;;;;;;;;17.10;99.90;;;;;;5073601;28;19940;-66
2023/07/01 00:48:47;;;;;;;;;;;17.00;99.90;;;;;;5074025;28;19912;-66
2023/07/01 00:51:13;;;;;;;;;;;17.00;99.90;;;;;;5056403;28;19965;-75
2023/07/01 00:53:39;;;;;;;;;;;17.00;99.90;;;;;;5056152;28;19936;-73
2023/07/01 00:56:06;;;;;;;;;;;17.00;99.90;;;;;;5072136;28;19912;-67
2023/07/01 00:58:32;;;;;;;;;;;17.00;99.90;;;;;;5073653;28;19924;-67
2023/07/01 01:01:00;;;;;;;;;;;17.10;99.90;;;;;;5074881;28;19919;-68
2023/07/01 01:03:26;;;;;;;;;;;17.10;99.90;;;;;;5074279;28;19951;-67
2023/07/01 01:05:52;;;;;;;;;;;17.10;99.90;;;;;;5071058;28;19948;-73
2023/07/01 01:08:47;;;;;;;;;;;17.10;99.90;;;;;;5074249;28;19908;-68
2023/07/01 01:11:13;;;;;;;;;;;17.10;99.90;;;;;;5056898;28;19935;-66
2023/07/01 01:13:41;;;;;;;;;;;17.10;99.90;;;;;;5074003;28;19962;-70
2023/07/01 01:16:06;;;;;;;;;;;17.10;99.90;;;;;;5073910;28;19923;-65
2023/07/01 01:18:32;;;;;;;;;;;17.10;99.90;;;;;;5073327;28;19912;-73
2023/07/01 01:20:58;;;;;;;;;;;17.10;99.90;;;;;;5073966;28;19966;-66
2023/07/01 01:23:28;;;;;;;;;;;17.20;99.90;;;;;;5074184;28;19947;-67
2023/07/01 01:26:07;;;;;;;;;;;17.10;99.90;;;;;;5067738;28;19913;-68
2023/07/01 01:28:36;;;;;;;;;;;17.10;99.90;;;;;;5073403;28;19916;-67
2023/07/01 01:31:02;;;;;;;;;;;17.10;99.90;;;;;;5074279;28;19912;-69
2023/07/01 01:33:27;;;;;;;;;;;17.10;99.90;;;;;;5074126;28;19909;-75
2023/07/01 01:35:56;;;;;;;;;;;17.10;99.90;;;;;;5073762;28;19913;-76
2023/07/01 01:38:25;;;;;;;;;;;17.10;99.90;;;;;;5073665;28;20246;-72
2023/07/01 01:40:57;;;;;;;;;;;17.10;99.90;;;;;;5074223;28;19916;-67
2023/07/01 01:43:34;;;;;;;;;;;17.10;99.90;;;;;;5076540;28;19919;-68
2023/07/01 01:46:00;;;;;;;;;;;17.10;99.90;;;;;;5077300;28;19908;-65
2023/07/01 01:48:26;;;;;;;;;;;17.10;99.90;;;;;;5059348;28;19962;-77
2023/07/01 01:50:53;;;;;;;;;;;17.10;99.90;;;;;;5075683;28;19908;-73
2023/07/01 01:53:19;;;;;;;;;;;17.10;99.90;;;;;;5077331;28;20291;-68
2023/07/01 01:55:45;;;;;;;;;;;17.10;99.90;;;;;;5078149;28;19948;-65
2023/07/01 01:58:11;;;;;;;;;;;17.10;99.90;;;;;;5076105;28;19920;-72
2023/07/01 02:00:36;;;;;;;;;;;17.10;99.90;;;;;;5077639;28;19969;-67
2023/07/01 02:03:02;;;;;;;;;;;17.10;99.90;;;;;;5059692;28;19909;-73
2023/07/01 02:05:28;;;;;;;;;;;17.10;99.90;;;;;;5077106;28;19908;-68
2023/07/01 02:07:55;;;;;;;;;;;17.10;99.90;;;;;;5076223;28;19919;-68
2023/07/01 02:10:20;;;;;;;;;;;17.10;99.90;;;;;;5077357;28;19917;-67
2023/07/01 02:12:46;;;;;;;;;;;17.10;99.90;;;;;;5077588;28;19916;-67
2023/07/01 02:15:12;;;;;;;;;;;17.10;99.90;;;;;;5077824;28;19912;-78
2023/07/01 02:17:37;;;;;;;;;;;17.10;99.90;;;;;;5075870;28;20357;-66
2023/07/01 02:20:04;;;;;;;;;;;17.10;99.90;;;;;;5070921;28;19948;-67
2023/07/01 02:22:29;;;;;;;;;;;17.10;99.90;;;;;;5074732;28;19966;-67
2023/07/01 02:24:55;;;;;;;;;;;17.10;99.90;;;;;;5076996;28;20274;-67
2023/07/01 02:27:22;;;;;;;;;;;17.10;99.90;;;;;;5076048;28;19912;-66
2023/07/01 02:29:48;;;;;;;;;;;17.00;99.90;;;;;;5074632;28;19948;-76
2023/07/01 02:32:13;;;;;;;;;;;17.00;99.90;;;;;;5076402;28;19913;-67
2023/07/01 02:34:39;;;;;;;;;;;17.00;99.90;;;;;;5076860;28;19958;-67
2023/07/01 02:37:05;;;;;;;;;;;17.00;99.90;;;;;;5077143;28;19915;-68
2023/07/01 02:39:31;;;;;;;;;;;17.00;99.90;;;;;;5071484;28;20378;-68
2023/07/01 02:41:56;;;;;;;;;;;17.00;99.90;;;;;;5076674;28;19921;-67
2023/07/01 02:44:22;;;;;;;;;;;17.00;99.90;;;;;;5076170;28;19908;-70
2023/07/01 02:46:48;;;;;;;;;;;16.90;99.90;;;;;;5076903;28;19958;-67
2023/07/01 02:49:13;;;;;;;;;;;17.00;99.90;;;;;;5076239;28;19916;-74
2023/07/01 02:51:40;;;;;;;;;;;16.90;99.90;;;;;;5076350;28;19913;-67
2023/07/01 02:54:05;;;;;;;;;;;16.90;99.90;;;;;;5075499;28;20294;-66
2023/07/01 02:56:31;;;;;;;;;;;16.90;99.90;;;;;;5074823;28;19920;-66
2023/07/01 02:58:56;;;;;;;;;;;16.90;99.90;;;;;;5076221;28;20270;-66
2023/07/01 03:01:22;;;;;;;;;;;16.90;99.90;;;;;;5074263;28;20019;-73
2023/07/01 03:03:49;;;;;;;;;;;16.90;99.90;;;;;;5076785;28;19960;-68
2023/07/01 03:06:18;;;;;;;;;;;16.90;99.90;;;;;;5075769;28;19913;-74
2023/07/01 03:08:43;;;;;;;;;;;16.90;99.90;;;;;;5076263;28;19916;-71
2023/07/01 03:11:09;;;;;;;;;;;16.90;99.90;;;;;;5076389;28;19916;-84
2023/07/01 03:13:37;;;;;;;;;;;16.80;99.90;;;;;;5075736;28;19916;-67
2023/07/01 03:16:03;;;;;;;;;;;16.80;99.90;;;;;;5075457;28;19916;-67
2023/07/01 03:18:29;;;;;;;;;;;16.80;99.90;;;;;;5075173;28;19927;-81
2023/07/01 03:20:57;;;;;;;;;;;16.80;99.90;;;;;;5076202;28;19912;-66
2023/07/01 03:23:23;;;;;;;;;;;16.80;99.90;;;;;;5057872;28;19913;-74
2023/07/01 03:25:48;;;;;;;;;;;16.80;99.90;;;;;;5075265;28;19919;-66
2023/07/01 03:28:14;;;;;;;;;;;16.80;99.90;;;;;;5075777;28;19931;-67
2023/07/01 03:30:40;;;;;;;;;;;16.70;99.90;;;;;;5073724;28;19913;-72
2023/07/01 03:33:06;;;;;;;;;;;16.70;99.90;;;;;;5075843;28;19915;-70
2023/07/01 03:35:31;;;;;;;;;;;16.70;99.90;;;;;;5048759;28;19923;-71
2023/07/01 03:37:57;;;;;;;;;;;16.70;99.90;;;;;;5075330;28;20227;-71
2023/07/01 03:40:22;;;;;;;;;;;16.70;99.90;;;;;;5076007;28;20348;-76
2023/07/01 03:42:48;;;;;;;;;;;16.80;99.90;;;;;;5074538;28;20364;-77
2023/07/01 03:45:14;;;;;;;;;;;16.80;99.90;;;;;;5075616;28;19978;-70
2023/07/01 03:47:43;;;;;;;;;;;16.80;99.90;;;;;;5074720;28;20311;-66
2023/07/01 03:50:09;;;;;;;;;;;16.80;99.90;;;;;;5062149;28;19909;-68
2023/07/01 03:52:36;;;;;;;;;;;16.80;99.90;;;;;;5074838;28;19938;-67
2023/07/01 03:55:02;;;;;;;;;;;16.80;99.90;;;;;;5072127;28;19916;-67
2023/07/01 03:57:28;;;;;;;;;;;16.80;99.90;;;;;;5056859;28;19909;-72
2023/07/01 03:59:53;;;;;;;;;;;16.80;99.90;;;;;;5073896;28;21809;-66
2023/07/01 04:02:19;;;;;;;;;;;16.80;99.90;;;;;;5075357;28;20227;-71
2023/07/01 04:04:45;;;;;;;;;;;16.90;99.90;;;;;;5074676;28;19908;-68
2023/07/01 04:07:10;;;;;;;;;;;16.90;99.90;;;;;;5075292;28;19912;-67
2023/07/01 04:09:36;;;;;;;;;;;16.90;99.90;;;;;;5074640;28;19920;-65
2023/07/01 04:12:02;;;;;;;;;;;16.90;99.90;;;;;;5074430;28;19915;-76
2023/07/01 04:14:28;;;;;;;;;;;16.90;99.90;;;;;;5074461;28;19913;-74
2023/07/01 04:16:53;;;;;;;;;;;16.90;99.90;;;;;;5071939;28;19909;-67
2023/07/01 04:19:19;;;;;;;;;;;16.90;99.90;;;;;;5075251;28;19908;-68
2023/07/01 04:21:45;;;;;;;;;;;16.90;99.90;;;;;;5073755;28;19970;-67
2023/07/01 04:24:11;;;;;;;;;;;16.90;99.90;;;;;;5074678;28;19908;-73
2023/07/01 04:26:37;;;;;;;;;;;16.90;99.90;;;;;;5074214;28;19924;-66
2023/07/01 04:29:03;;;;;;;;;;;16.90;99.90;;;;;;5074826;28;19912;-68
2023/07/01 04:31:28;;;;;;;;;;;16.90;99.90;;;;;;5074205;28;19912;-65
2023/07/01 04:33:55;;;;;;;;;;;16.90;99.90;;;;;;5075037;28;20184;-68
2023/07/01 04:36:20;;;;;;;;;;;16.90;99.90;;;;;;5073571;28;19908;-66
2023/07/01 04:38:46;;;;;;;;;;;16.90;99.90;;;;;;5074430;28;19912;-70
2023/07/01 04:41:13;;;;;;;;;;;16.90;99.90;;;;;;5074275;28;19913;-76
2023/07/01 04:43:39;;;;;;;;;;;16.90;99.90;;;;;;5075169;28;19909;-76
2023/07/01 04:46:04;;;;;;;;;;;16.90;99.90;;;;;;5074731;28;19912;-67
2023/07/01 04:48:30;;;;;;;;;;;16.90;99.90;;;;;;5074330;28;20287;-68
2023/07/01 04:50:56;;;;;;;;;;;16.90;99.90;;;;;;5074726;28;20011;-79
2023/07/01 04:53:22;;;;;;;;;;;16.90;99.90;;;;;;5074342;28;19909;-68
2023/07/01 04:55:47;;;;;;;;;;;16.90;99.90;;;;;;5074808;28;19909;-65
2023/07/01 04:58:13;;;;;;;;;;;16.90;99.90;;;;;;5073426;28;20832;-64
2023/07/01 05:00:38;;;;;;;;;;;16.90;99.90;;;;;;5074485;28;19917;-68
2023/07/01 05:03:04;;;;;;;;;;;16.90;99.90;;;;;;5042620;28;19947;-67
2023/07/01 05:05:30;;;;;;;;;;;16.90;99.90;;;;;;5068446;28;19915;-65
2023/07/01 05:07:55;;;;;;;;;;;16.90;99.90;;;;;;5074869;28;19912;-66
2023/07/01 05:10:22;;;;;;;;;;;16.90;99.90;;;;;;5072606;28;20006;-65
2023/07/01 05:12:48;;;;;;;;;;;16.90;99.90;;;;;;5074924;28;20214;-66
2023/07/01 05:15:14;;;;;;;;;;;16.90;99.90;;;;;;5073180;28;20308;-66
2023/07/01 05:17:40;;;;;;;;;;;16.90;99.90;;;;;;5076781;28;20008;-67
2023/07/01 05:20:06;;;;;;;;;;;16.90;99.90;;;;;;5075004;28;19924;-67
2023/07/01 05:22:32;;;;;;;;;;;16.90;99.90;;;;;;5059516;28;20307;-70
2023/07/01 05:24:57;;;;;;;;;;;16.90;99.90;;;;;;5078120;28;19909;-65
2023/07/01 05:27:23;;;;;;;;;;;16.90;99.90;;;;;;5076985;28;19916;-67
2023/07/01 05:29:48;;;;;;;;;;;17.00;99.90;;;;;;5060400;28;19908;-66
2023/07/01 05:32:14;;;;;;;;;;;17.00;99.90;;;;;;5076843;28;19913;-67
2023/07/01 05:34:39;;;;;;;;;;;17.00;99.90;;;;;;5077779;28;19999;-66
2023/07/01 05:37:05;;;;;;;;;;;17.00;99.90;;;;;;5078051;28;19909;-66
2023/07/01 05:39:31;;;;;;;;;;;17.00;99.90;;;;;;5077458;28;19912;-79
2023/07/01 05:41:56;;;;;;;;;;;17.00;99.90;;;;;;5077746;28;19965;-66
2023/07/01 05:44:24;;;;;;;;;;;17.00;99.90;;;;;;5076357;28;19921;-65
2023/07/01 05:46:50;;;;;;;;;;;17.00;99.90;;;;;;5077669;28;20414;-69
2023/07/01 05:49:15;;;;;;;;;;;17.10;99.90;;;;;;5077925;28;19912;-70
2023/07/01 05:51:41;;;;;;;;;;;17.10;99.90;;;;;;5059355;28;19916;-71
2023/07/01 05:54:07;;;;;;;;;;;17.10;99.90;;;;;;5076134;28;19970;-66
2023/07/01 05:56:32;;;;;;;;;;;17.10;99.90;;;;;;5077136;28;20254;-66
2023/07/01 05:58:58;;;;;;;;;;;17.10;99.90;;;;;;5077272;28;20003;-67
2023/07/01 06:01:24;;;;;;;;;;;17.10;99.90;;;;;;5076992;28;20392;-73
2023/07/01 06:03:50;;;;;;;;;;;17.10;99.90;;;;;;5076184;28;20031;-66
2023/07/01 06:06:15;;;;;;;;;;;17.10;99.90;;;;;;5077115;28;19913;-70
2023/07/01 06:08:42;;;;;;;;;;;17.10;99.90;;;;;;5076880;28;20046;-70
2023/07/01 06:11:08;;;;;;;;;;;17.10;99.90;;;;;;5075279;28;19909;-66
2023/07/01 06:13:34;;;;;;;;;;;17.10;99.90;;;;;;5077142;28;19927;-71
2023/07/01 06:15:59;;;;;;;;;;;17.20;99.90;;;;;;5056708;28;19908;-72
2023/07/01 06:18:25;;;;;;;;;;;17.30;99.90;;;;;;5076641;28;19975;-68
2023/07/01 06:20:51;;;;;;;;;;;17.30;99.90;;;;;;5075411;28;19916;-67
2023/07/01 06:23:17;;;;;;;;;;;17.30;99.90;;;;;;5071880;28;19916;-68
2023/07/01 06:25:42;;;;;;;;;;;17.30;99.90;;;;;;5075861;28;20295;-77
2023/07/01 06:28:08;;;;;;;;;;;17.30;99.90;;;;;;5076133;28;19915;-67
2023/07/01 06:30:34;;;;;;;;;;;17.30;99.90;;;;;;5076280;28;19959;-67
2023/07/01 06:32:59;;;;;;;;;;;17.40;99.90;;;;;;5076709;28;19936;-66
2023/07/01 06:35:25;;;;;;;;;;;17.40;99.90;;;;;;5076806;28;19931;-71
2023/07/01 06:37:50;;;;;;;;;;;17.40;99.90;;;;;;5076903;28;20383;-69
2023/07/01 06:40:16;;;;;;;;;;;17.40;99.90;;;;;;5075376;28;19970;-72
2023/07/01 06:42:42;;;;;;;;;;;17.40;99.90;;;;;;5076271;28;19924;-68
2023/07/01 06:45:08;;;;;;;;;;;17.40;99.90;;;;;;5074622;28;20731;-69
2023/07/01 06:47:33;;;;;;;;;;;17.40;99.90;;;;;;5071316;28;19916;-69
2023/07/01 06:49:59;;;;;;;;;;;17.40;99.90;;;;;;5075157;28;20211;-67
2023/07/01 06:52:25;;;;;;;;;;;17.40;99.90;;;;;;5076605;28;19913;-70
2023/07/01 06:54:50;;;;;;;;;;;17.40;99.90;;;;;;5077518;28;20325;-80
2023/07/01 06:57:16;;;;;;;;;;;17.50;99.90;;;;;;5075443;28;19923;-69
2023/07/01 06:59:42;;;;;;;;;;;17.50;99.90;;;;;;5070363;28;20315;-68
2023/07/01 07:02:07;;;;;;;;;;;17.50;99.90;;;;;;5075864;28;19959;-68
2023/07/01 07:04:33;;;;;;;;;;;17.50;99.90;;;;;;5066784;28;20329;-66
2023/07/01 07:07:00;;;;;;;;;;;17.50;99.90;;;;;;5074451;28;20039;-68
2023/07/01 07:09:26;;;;;;;;;;;17.50;99.90;;;;;;5075367;28;19909;-78
2023/07/01 07:11:55;;;;;;;;;;;17.50;99.90;;;;;;5049527;28;19954;-67
2023/07/01 07:14:22;;;;;;;;;;;17.50;99.90;;;;;;5073862;28;19970;-67
2023/07/01 07:16:48;;;;;;;;;;;17.60;99.90;;;;;;5049589;28;19912;-74
2023/07/01 07:19:14;;;;;;;;;;;17.60;99.90;;;;;;5072594;28;20363;-70
2023/07/01 07:21:40;;;;;;;;;;;17.60;99.90;;;;;;5074949;28;19916;-77
2023/07/01 07:24:07;;;;;;;;;;;17.70;99.90;;;;;;5072392;28;19958;-69
2023/07/01 07:26:33;;;;;;;;;;;17.70;99.90;;;;;;5057239;28;19942;-75
2023/07/01 07:29:01;;;;;;;;;;;17.70;99.90;;;;;;5050493;28;20219;-69
2023/07/01 07:31:27;;;;;;;;;;;17.80;99.90;;;;;;5073593;28;19914;-70
2023/07/01 07:33:53;;;;;;;;;;;17.80;99.90;;;;;;5073720;28;19926;-67
2023/07/01 07:36:19;;;;;;;;;;;17.90;99.90;;;;;;5074851;28;19913;-68
2023/07/01 07:38:44;;;;;;;;;;;17.90;99.90;;;;;;5075260;28;19951;-68
2023/07/01 07:41:10;;;;;;;;;;;18.00;99.90;;;;;;5073684;28;19919;-69
2023/07/01 07:43:35;;;;;;;;;;;18.00;99.90;;;;;;5075191;28;19962;-72
2023/07/01 07:46:01;;;;;;;;;;;18.10;99.90;;;;;;5052920;28;20231;-73
2023/07/01 07:48:27;;;;;;;;;;;18.10;99.90;;;;;;5075441;28;19916;-70
2023/07/01 07:50:52;;;;;;;;;;;18.10;99.90;;;;;;5075045;28;20049;-68
2023/07/01 07:53:18;;;;;;;;;;;18.10;99.90;;;;;;5070533;28;19912;-68
2023/07/01 07:55:44;;;;;;;;;;;18.10;99.90;;;;;;5049984;28;19917;-69
2023/07/01 07:58:10;;;;;;;;;;;18.10;99.90;;;;;;5074707;28;19912;-68
2023/07/01 08:00:35;;;;;;;;;;;18.10;99.90;;;;;;5074455;28;20326;-72
2023/07/01 08:03:01;;;;;;;;;;;18.10;99.90;;;;;;5073404;28;19913;-68
2023/07/01 08:05:28;;;;;;;;;;;18.10;99.90;;;;;;5073386;28;19912;-67
2023/07/01 08:07:53;;;;;;;;;;;18.20;99.90;;;;;;5071798;28;20227;-68
2023/07/01 08:10:19;;;;;;;;;;;18.20;99.90;;;;;;5066528;28;19958;-74
2023/07/01 08:12:48;;;;;;;;;;;18.20;99.90;;;;;;5074245;28;20331;-70
2023/07/01 08:15:17;;;;;;;;;;;18.20;99.90;;;;;;5073879;28;19995;-68
2023/07/01 08:17:44;;;;;;;;;;;18.30;99.90;;;;;;5071209;28;19960;-67
2023/07/01 08:20:10;;;;;;;;;;;18.30;99.90;;;;;;5068225;28;19916;-69
2023/07/01 08:22:37;;;;;;;;;;;18.30;99.90;;;;;;5051983;28;19916;-68
2023/07/01 08:25:02;;;;;;;;;;;18.30;99.90;;;;;;5055866;28;19912;-68
2023/07/01 08:27:28;;;;;;;;;;;18.40;99.90;;;;;;5055119;28;20011;-68
2023/07/01 08:29:54;;;;;;;;;;;18.40;99.90;;;;;;5073725;28;19917;-68
2023/07/01 08:32:20;;;;;;;;;;;18.50;99.90;;;;;;5073020;28;19924;-68
2023/07/01 08:34:45;;;;;;;;;;;18.50;99.90;;;;;;5073931;28;20307;-70
2023/07/01 08:37:11;;;;;;;;;;;18.60;99.90;;;;;;5073411;28;19962;-68
2023/07/01 08:39:37;;;;;;;;;;;18.60;99.90;;;;;;5071276;28;20420;-68
2023/07/01 08:42:06;;;;;;;;;;;18.60;99.90;;;;;;5074177;28;19962;-68
2023/07/01 08:44:33;;;;;;;;;;;18.50;99.90;;;;;;5068174;28;20648;-68
2023/07/01 08:47:00;;;;;;;;;;;18.40;99.90;;;;;;5072862;28;19913;-68
2023/07/01 08:49:28;;;;;;;;;;;18.40;99.90;;;;;;5073737;28;20184;-68
2023/07/01 08:52:05;;;;;;;;;;;18.40;99.90;;;;;;5075645;28;19950;-70
2023/07/01 08:54:33;;;;;;;;;;;18.40;99.90;;;;;;5074350;28;19999;-68
2023/07/01 08:56:59;;;;;;;;;;;18.40;99.90;;;;;;5077329;28;20235;-68
2023/07/01 08:59:25;;;;;;;;;;;18.50;99.90;;;;;;5078000;28;19920;-68
2023/07/01 09:01:50;;;;;;;;;;;18.60;99.90;;;;;;5074258;28;19966;-68
2023/07/01 09:04:16;;;;;;;;;;;18.60;99.90;;;;;;5078356;28;20337;-68
2023/07/01 09:06:42;;;;;;;;;;;18.70;99.90;;;;;;5078241;28;19924;-68
2023/07/01 09:09:08;;;;;;;;;;;18.70;99.90;;;;;;5077349;28;19913;-68
2023/07/01 09:11:35;;;;;;;;;;;18.70;99.90;;;;;;5078233;28;19912;-69
2023/07/01 09:14:02;;;;;;;;;;;18.70;99.90;;;;;;5078306;28;19908;-69
2023/07/01 09:16:35;;;;;;;;;;;18.60;99.90;;;;;;5074313;28;20111;-69
2023/07/01 09:19:08;;;;;;;;;;;18.60;99.90;;;;;;5076464;28;19917;-68
2023/07/01 09:21:34;;;;;;;;;;;18.70;99.90;;;;;;5072871;28;19939;-70
2023/07/01 09:24:00;;;;;;;;;;;18.70;99.90;;;;;;5077654;28;20483;-69
2023/07/01 09:26:28;;;;;;;;;;;18.70;99.90;;;;;;5056868;28;19916;-68
2023/07/01 09:28:54;;;;;;;;;;;18.70;99.90;;;;;;5074963;28;19923;-69
2023/07/01 09:31:20;;;;;;;;;;;18.70;99.90;;;;;;5077307;28;20222;-69
2023/07/01 09:34:00;;;;;;;;;;;18.70;99.90;;;;;;5077652;28;19912;-76
2023/07/01 09:36:27;;;;;;;;;;;18.60;99.90;;;;;;5055141;28;19912;-74
2023/07/01 09:38:53;;;;;;;;;;;18.60;99.90;;;;;;5076686;28;20300;-69
2023/07/01 09:41:20;;;;;;;;;;;18.60;99.90;;;;;;5077379;28;20006;-68
2023/07/01 09:43:47;;;;;;;;;;;18.60;99.90;;;;;;5077987;28;19909;-70
2023/07/01 09:46:13;;;;;;;;;;;18.70;99.90;;;;;;5077125;28;20250;-69
2023/07/01 09:48:38;;;;;;;;;;;18.70;99.90;;;;;;5055914;28;19928;-68
2023/07/01 09:51:06;;;;;;;;;;;18.70;99.90;;;;;;5076050;28;20258;-69
2023/07/01 09:53:33;;;;;;;;;;;18.70;99.90;;;;;;5075068;28;19966;-69
2023/07/01 09:56:06;;;;;;;;;;;18.70;99.90;;;;;;5072646;28;19916;-67
2023/07/01 09:58:32;;;;;;;;;;;18.70;99.90;;;;;;5076612;28;19924;-71
2023/07/01 10:00:58;;;;;;;;;;;18.80;99.90;;;;;;5077704;28;20211;-75
2023/07/01 10:03:25;;;;;;;;;;;18.70;99.90;;;;;;5078332;28;20296;-70
2023/07/01 10:05:52;;;;;;;;;;;18.70;99.90;;;;;;5077298;28;20319;-70
2023/07/01 10:08:19;;;;;;;;;;;18.70;99.90;;;;;;5051084;28;19913;-77
2023/07/01 10:10:55;;;;;;;;;;;18.70;99.90;;;;;;5077405;28;19944;-69
2023/07/01 10:13:22;;;;;;;;;;;18.70;99.90;;;;;;5076985;28;20309;-69
2023/07/01 10:15:51;;;;;;;;;;;18.90;99.90;;;;;;5076617;28;19916;-69
2023/07/01 10:18:23;;;;;;;;;;;19.10;99.90;;;;;;5077162;28;19936;-69
2023/07/01 10:20:50;;;;;;;;;;;19.20;99.90;;;;;;5077743;28;19916;-70
2023/07/01 10:23:17;;;;;;;;;;;19.20;99.90;;;;;;5077200;28;20026;-71
2023/07/01 10:25:43;;;;;;;;;;;19.10;99.90;;;;;;5075167;28;19912;-75
2023/07/01 10:28:12;;;;;;;;;;;19.10;99.90;;;;;;5076199;28;20214;-72
2023/07/01 10:30:43;;;;;;;;;;;19.00;99.90;;;;;;5057903;28;19924;-68
2023/07/01 10:33:27;;;;;;;;;;;19.00;99.90;;;;;;5075570;28;19912;-82
2023/07/01 10:36:03;;;;;;;;;;;19.00;99.90;;;;;;5057209;28;20122;-69
2023/07/01 10:38:31;;;;;;;;;;;18.90;99.90;;;;;;5075081;28;19995;-75
2023/07/01 10:40:57;;;;;;;;;;;19.00;99.90;;;;;;5076012;28;20011;-70
2023/07/01 10:43:29;;;;;;;;;;;19.00;99.90;;;;;;5055692;28;19916;-72
2023/07/01 10:46:12;;;;;;;;;;;19.00;99.90;;;;;;5058406;28;20000;-68
2023/07/01 10:48:39;;;;;;;;;;;19.00;99.90;;;;;;5058035;28;20211;-80
2023/07/01 10:51:05;;;;;;;;;;;18.90;99.90;;;;;;5076036;28;20223;-69
2023/07/01 10:53:40;;;;;;;;;;;18.90;99.90;;;;;;5076245;28;20394;-78
2023/07/01 10:56:11;;;;;;;;;;;19.00;99.90;;;;;;5074611;28;20003;-84
2023/07/01 10:58:37;;;;;;;;;;;18.90;99.90;;;;;;5066828;28;19924;-81
2023/07/01 11:01:03;;;;;;;;;;;18.90;99.90;;;;;;5076863;28;19945;-74
2023/07/01 11:03:34;;;;;;;;;;;18.90;99.90;;;;;;5076204;28;19931;-70
2023/07/01 11:06:01;;;;;;;;;;;18.90;99.90;;;;;;5075995;28;19909;-74
2023/07/01 11:08:31;;;;;;;;;;;19.00;99.90;;;;;;5075148;28;19913;-72
2023/07/01 11:10:57;;;;;;;;;;;19.00;99.90;;;;;;5058582;28;19919;-83
2023/07/01 11:13:28;;;;;;;;;;;19.00;99.90;;;;;;5068887;28;19912;-78
2023/07/01 11:16:06;;;;;;;;;;;19.10;99.90;;;;;;5057435;28;19974;-72
2023/07/01 11:18:45;;;;;;;;;;;19.20;99.90;;;;;;5075504;28;19912;-79
2023/07/01 11:21:11;;;;;;;;;;;19.20;99.90;;;;;;5054341;28;19938;-78
2023/07/01 11:23:38;;;;;;;;;;;19.20;99.90;;;;;;5075683;28;19974;-77
2023/07/01 11:26:04;;;;;;;;;;;19.30;99.90;;;;;;5075660;28;19934;-73
2023/07/01 11:28:31;;;;;;;;;;;19.30;99.90;;;;;;5074723;28;19924;-68
2023/07/01 11:31:10;;;;;;;;;;;19.20;99.90;;;;;;5075645;28;19919;-77
2023/07/01 11:33:36;;;;;;;;;;;19.30;99.90;;;;;;5074590;28;20312;-73
2023/07/01 11:36:03;;;;;;;;;;;19.40;99.90;;;;;;5057114;28;19966;-74
2023/07/01 11:38:30;;;;;;;;;;;19.50;99.90;;;;;;5073728;28;20385;-67
2023/07/01 11:40:56;;;;;;;;;;;19.70;99.90;;;;;;5075228;28;19923;-68
2023/07/01 11:43:24;;;;;;;;;;;19.90;99.90;;;;;;5047462;28;20243;-68
2023/07/01 11:45:54;;;;;;;;;;;19.90;99.90;;;;;;5075066;28;20307;-77
2023/07/01 11:48:30;;;;;;;;;;;19.90;99.90;;;;;;5070119;28;19918;-72
2023/07/01 11:50:56;;;;;;;;;;;19.90;99.90;;;;;;5055050;28;19912;-67
2023/07/01 11:53:22;;;;;;;;;;;19.90;99.90;;;;;;5073965;28;20392;-69
2023/07/01 11:55:48;;;;;;;;;;;19.90;99.90;;;;;;5074518;28;19938;-72
2023/07/01 11:58:27;;;;;;;;;;;19.90;99.90;;;;;;5074334;28;19919;-67
2023/07/01 12:00:54;;;;;;;;;;;19.90;99.90;;;;;;5075083;28;20012;-68
2023/07/01 12:03:21;;;;;;;;;;;19.80;99.90;;;;;;5074795;28;19914;-69
2023/07/01 12:05:53;;;;;;;;;;;19.80;99.90;;;;;;5071105;28;20209;-79
2023/07/01 12:08:19;;;;;;;;;;;19.80;99.90;;;;;;5073330;28;20003;-89
2023/07/01 12:10:44;;;;;;;;;;;19.90;99.90;;;;;;5074881;28;20003;-84
2023/07/01 12:13:28;;;;;;;;;;;20.00;99.90;;;;;;5074950;28;19915;-83
2023/07/01 12:15:57;;;;;;;;;;;20.00;99.90;;;;;;5070353;28;19912;-88
2023/07/01 12:18:26;;;;;;;;;;;19.90;99.90;;;;;;5050834;28;19928;-73
2023/07/01 12:20:52;;;;;;;;;;;19.80;99.90;;;;;;5073835;28;19912;-69
2023/07/01 12:23:18;;;;;;;;;;;19.80;99.90;;;;;;5049653;28;19908;-79
2023/07/01 12:25:44;;;;;;;;;;;19.70;99.90;;;;;;5073884;28;20490;-78
2023/07/01 12:28:13;;;;;;;;;;;19.60;99.90;;;;;;5056445;28;19987;-74
2023/07/01 12:30:40;;;;;;;;;;;19.60;99.90;;;;;;5056815;28;19920;-76
2023/07/01 12:33:06;;;;;;;;;;;19.50;99.90;;;;;;5074946;28;19916;-68
2023/07/01 12:35:32;;;;;;;;;;;19.50;99.90;;;;;;5074856;28;19908;-76
2023/07/01 12:37:58;;;;;;;;;;;19.40;99.90;;;;;;5073930;28;19915;-81
2023/07/01 12:40:27;;;;;;;;;;;19.30;99.90;;;;;;5074925;28;19917;-70
2023/07/01 12:42:54;;;;;;;;;;;19.20;99.90;;;;;;5074691;28;19959;-85
2023/07/01 12:45:20;;;;;;;;;;;19.10;99.90;;;;;;5055638;28;19916;-83
2023/07/01 12:47:47;;;;;;;;;;;19.00;99.90;;;;;;5056474;28;20008;-79
2023/07/01 12:50:15;;;;;;;;;;;19.00;99.90;;;;;;5074800;28;19916;-79
2023/07/01 12:52:42;;;;;;;;;;;19.00;99.90;;;;;;5073478;28;19909;-69
2023/07/01 12:55:10;;;;;;;;;;;18.90;99.90;;;;;;5070863;28;19913;-68
2023/07/01 12:57:38;;;;;;;;;;;18.70;99.90;;;;;;5073084;28;19909;-67
2023/07/01 13:00:05;;;;;;;;;;;18.70;99.90;;;;;;5074386;28;19932;-71
2023/07/01 13:02:34;;;;;;;;;;;18.60;99.90;;;;;;5074898;28;19921;-83
2023/07/01 13:05:01;;;;;;;;;;;18.70;99.90;;;;;;5074586;28;20318;-83
2023/07/01 13:07:30;;;;;;;;;;;18.70;99.90;;;;;;5074671;28;19969;-79
2023/07/01 13:09:56;;;;;;;;;;;18.70;99.90;;;;;;5074724;28;19989;-82
2023/07/01 13:12:24;;;;;;;;;;;18.70;99.90;;;;;;5057074;28;19912;-69
2023/07/01 13:14:51;;;;;;;;;;;18.60;99.90;;;;;;5073968;28;19912;-70
2023/07/01 13:17:19;;;;;;;;;;;18.40;99.90;;;;;;5069108;28;19912;-69
2023/07/01 13:19:45;;;;;;;;;;;18.30;99.90;;;;;;5072468;28;19948;-69
2023/07/01 13:22:13;;;;;;;;;;;18.20;99.90;;;;;;5074171;28;20329;-78
2023/07/01 13:24:40;;;;;;;;;;;17.90;99.90;;;;;;5073675;28;19916;-88
2023/07/01 13:27:09;;;;;;;;;;;17.70;99.90;;;;;;5070641;28;20038;-86
2023/07/01 13:29:36;;;;;;;;;;;17.60;99.90;;;;;;5074283;28;19916;-82
2023/07/01 13:32:04;;;;;;;;;;;17.70;99.90;;;;;;5069407;28;20211;-74
2023/07/01 13:34:34;;;;;;;;;;;17.70;99.90;;;;;;5055999;28;19927;-69
2023/07/01 13:37:02;;;;;;;;;;;17.90;99.90;;;;;;5074803;28;20329;-82
2023/07/01 13:39:42;;;;;;;;;;;18.00;99.90;;;;;;5077573;28;19920;-77
2023/07/01 13:42:08;;;;;;;;;;;18.10;99.90;;;;;;5069285;28;19916;-81
2023/07/01 13:44:40;;;;;;;;;;;18.30;99.90;;;;;;5077127;28;19912;-75
2023/07/01 13:47:10;;;;;;;;;;;18.20;99.90;;;;;;5078170;28;19974;-69
2023/07/01 13:49:37;;;;;;;;;;;18.30;99.90;;;;;;5076647;28;19908;-87
2023/07/01 13:52:03;;;;;;;;;;;18.30;99.90;;;;;;5077329;28;20003;-74
2023/07/01 13:54:30;;;;;;;;;;;18.30;99.90;;;;;;5077962;28;19959;-86
2023/07/01 13:56:59;;;;;;;;;;;18.40;99.90;;;;;;5060020;28;19909;-85
2023/07/01 13:59:26;;;;;;;;;;;18.40;99.90;;;;;;5043268;28;19959;-80
2023/07/01 14:01:58;;;;;;;;;;;18.30;99.90;;;;;;5037086;28;19924;-81
2023/07/01 14:04:25;;;;;;;;;;;18.30;99.90;;;;;;5037284;28;20012;-72
2023/07/01 14:06:51;;;;;;;;;;;18.20;99.90;;;;;;5037516;28;20319;-84
2023/07/01 14:09:21;;;;;;;;;;;18.30;99.90;;;;;;5035972;28;19917;-75
2023/07/01 14:11:46;;;;;;;;;;;18.30;99.90;;;;;;5035509;28;20540;-79
2023/07/01 14:14:18;;;;;;;;;;;18.40;99.90;;;;;;5037509;28;20003;-77